createdAt,value
2018-10-21T00:01:25.999Z,24.00
2018-10-21T00:03:59.809Z,24.20
2018-10-21T00:06:33.708Z,23.33
2018-10-21T00:09:10.391Z,23.50
2018-10-21T00:11:44.225Z,23.50
2018-10-21T00:14:17.964Z,24.10
2018-10-21T00:16:51.823Z,23.50
2018-10-21T00:19:26.634Z,24.47
2018-10-21T00:22:00.523Z,24.57
2018-10-21T00:24:34.288Z,23.33
2018-10-21T00:27:08.370Z,24.30
2018-10-21T00:29:42.142Z,24.07
2018-10-21T00:32:15.929Z,24.77
2018-10-21T00:34:49.646Z,24.40
2018-10-21T00:37:23.511Z,25.10
2018-10-21T00:39:57.237Z,23.97
2018-10-21T00:42:31.046Z,23.90
2018-10-21T00:45:05.712Z,24.40
2018-10-21T00:47:46.020Z,24.40
2018-10-21T00:50:19.928Z,24.07
2018-10-21T00:52:53.797Z,24.33
2018-10-21T00:55:33.930Z,24.70
2018-10-21T00:58:07.779Z,24.83
2018-10-21T01:00:41.639Z,24.40
2018-10-21T01:03:21.745Z,24.83
2018-10-21T01:05:55.683Z,24.93
2018-10-21T01:08:29.483Z,24.40
2018-10-21T01:11:03.120Z,23.90
2018-10-21T01:13:36.973Z,24.63
2018-10-21T01:16:10.923Z,24.37
2018-10-21T01:18:44.848Z,23.53
2018-10-21T01:21:18.785Z,25.97
2018-10-21T01:23:52.861Z,25.70
2018-10-21T01:26:33.037Z,25.17
2018-10-21T01:29:06.839Z,25.73
2018-10-21T01:31:40.566Z,25.57
2018-10-21T01:34:14.397Z,25.63
2018-10-21T01:36:48.283Z,25.20
2018-10-21T01:39:30.453Z,25.47
2018-10-21T01:44:44.872Z,23.97
2018-10-21T01:47:18.544Z,26.20
2018-10-21T01:49:52.306Z,26.27
2018-10-21T01:52:26.141Z,26.50
2018-10-21T01:54:59.838Z,25.63
2018-10-21T01:57:33.619Z,25.53
2018-10-21T02:00:07.372Z,23.90
2018-10-21T02:02:41.028Z,24.03
2018-10-21T02:05:14.715Z,25.87
2018-10-21T02:07:48.431Z,25.20
2018-10-21T02:10:22.473Z,25.43
2018-10-21T02:12:56.316Z,26.40
2018-10-21T02:15:30.249Z,26.50
2018-10-21T02:18:04.230Z,25.80
2018-10-21T02:20:38.302Z,25.63
2018-10-21T02:23:12.048Z,25.50
2018-10-21T02:25:46.043Z,24.73
2018-10-21T02:28:19.912Z,25.47
2018-10-21T02:30:53.917Z,25.27
2018-10-21T02:33:27.947Z,24.87
2018-10-21T02:36:01.764Z,24.27
2018-10-21T02:38:35.731Z,26.30
2018-10-21T02:41:54.120Z,26.30
2018-10-21T02:44:27.816Z,25.87
2018-10-21T02:47:08.179Z,25.50
2018-10-21T02:49:41.885Z,25.43
2018-10-21T02:52:15.670Z,24.97
2018-10-21T02:54:50.300Z,25.20
2018-10-21T02:57:30.504Z,29.90
2018-10-21T03:00:04.403Z,25.47
2018-10-21T03:02:37.991Z,24.67
2018-10-21T03:05:12.619Z,24.90
2018-10-21T03:07:46.396Z,25.20
2018-10-21T03:10:20.123Z,26.33
2018-10-21T03:12:53.926Z,25.47
2018-10-21T03:15:27.642Z,25.20
2018-10-21T03:18:01.464Z,24.77
2018-10-21T03:20:35.273Z,25.13
2018-10-21T03:23:09.154Z,24.37
2018-10-21T03:25:44.300Z,23.77
2018-10-21T03:28:18.126Z,24.60
2018-10-21T03:30:51.984Z,23.37
2018-10-21T03:33:32.656Z,24.07
2018-10-21T03:36:06.654Z,24.57
2018-10-21T03:38:46.780Z,25.47
2018-10-21T03:41:20.492Z,24.63
2018-10-21T03:43:54.343Z,24.77
2018-10-21T03:46:27.891Z,24.67
2018-10-21T03:49:01.799Z,24.73
2018-10-21T03:51:35.342Z,24.70
2018-10-21T03:54:09.163Z,24.17
2018-10-21T03:56:42.808Z,23.83
2018-10-21T03:59:16.519Z,24.83
2018-10-21T04:01:50.723Z,24.17
2018-10-21T04:04:24.429Z,22.73
2018-10-21T04:06:58.027Z,23.97
2018-10-21T04:09:32.624Z,25.23
2018-10-21T04:12:06.199Z,24.53
2018-10-21T04:14:40.033Z,26.33
2018-10-21T04:17:13.775Z,26.83
2018-10-21T04:19:47.402Z,25.77
2018-10-21T04:22:21.186Z,24.40
2018-10-21T04:24:55.092Z,25.20
2018-10-21T04:27:28.878Z,24.07
2018-10-21T04:30:02.665Z,25.93
2018-10-21T04:32:43.658Z,25.00
2018-10-21T04:35:23.957Z,26.07
2018-10-21T04:40:14.054Z,24.70
2018-10-21T04:42:48.006Z,26.10
2018-10-21T04:45:22.326Z,26.13
2018-10-21T04:47:56.756Z,26.57
2018-10-21T04:50:30.808Z,26.27
2018-10-21T04:53:04.858Z,24.73
2018-10-21T04:55:45.057Z,27.10
2018-10-21T04:58:18.779Z,27.37
2018-10-21T05:00:52.619Z,26.93
2018-10-21T05:03:27.457Z,27.07
2018-10-21T05:06:02.000Z,27.27
2018-10-21T05:08:35.675Z,28.23
2018-10-21T05:11:10.456Z,27.20
2018-10-21T05:13:44.291Z,28.67
2018-10-21T05:16:18.833Z,27.67
2018-10-21T05:18:52.652Z,28.93
2018-10-21T05:21:26.437Z,29.50
2018-10-21T05:24:00.158Z,30.17
2018-10-21T05:26:40.667Z,29.00
2018-10-21T05:29:15.258Z,30.33
2018-10-21T05:31:48.854Z,30.07
2018-10-21T05:34:22.380Z,30.60
2018-10-21T05:36:56.300Z,30.43
2018-10-21T05:39:31.026Z,31.50
2018-10-21T05:42:04.906Z,30.77
2018-10-21T05:44:39.865Z,31.07
2018-10-21T05:47:13.730Z,29.00
2018-10-21T05:49:47.381Z,33.17
2018-10-21T05:52:21.295Z,29.60
2018-10-21T05:55:01.487Z,30.43
2018-10-21T05:57:35.539Z,29.97
2018-10-21T06:00:11.679Z,28.97
2018-10-21T06:02:46.216Z,30.50
2018-10-21T06:05:34.196Z,31.13
2018-10-21T06:08:09.021Z,31.07
2018-10-21T06:10:43.206Z,31.23
2018-10-21T06:13:16.952Z,31.23
2018-10-21T06:15:50.695Z,32.80
2018-10-21T06:18:26.419Z,31.77
2018-10-21T06:21:06.277Z,30.17
2018-10-21T06:23:39.929Z,32.13
2018-10-21T06:26:13.471Z,31.17
2018-10-21T06:28:53.604Z,32.30
2018-10-21T06:31:28.380Z,34.23
2018-10-21T06:34:08.377Z,31.30
2018-10-21T06:36:43.161Z,31.17
2018-10-21T06:39:16.946Z,30.93
2018-10-21T06:41:51.342Z,30.20
2018-10-21T06:44:31.251Z,32.60
2018-10-21T06:47:04.979Z,30.70
2018-10-21T06:49:38.864Z,31.53
2018-10-21T06:52:18.967Z,29.70
2018-10-21T06:54:58.821Z,30.90
2018-10-21T06:57:32.741Z,32.77
2018-10-21T07:00:09.773Z,29.90
2018-10-21T07:02:43.781Z,30.50
2018-10-21T07:05:29.282Z,31.27
2018-10-21T07:08:03.027Z,30.57
2018-10-21T07:12:06.358Z,31.80
2018-10-21T07:14:39.934Z,30.57
2018-10-21T07:17:13.762Z,29.70
2018-10-21T07:19:47.686Z,34.27
2018-10-21T07:22:27.970Z,30.93
2018-10-21T07:25:09.214Z,30.47
2018-10-21T07:27:42.810Z,30.87
2018-10-21T07:30:16.891Z,29.67
2018-10-21T07:32:56.802Z,31.13
2018-10-21T07:35:30.643Z,29.53
2018-10-21T07:38:04.351Z,29.83
2018-10-21T07:40:38.321Z,30.27
2018-10-21T07:43:18.283Z,29.60
2018-10-21T07:45:52.178Z,30.53
2018-10-21T07:48:26.071Z,29.80
2018-10-21T07:50:59.798Z,30.37
2018-10-21T07:53:33.362Z,29.70
2018-10-21T07:56:13.447Z,29.47
2018-10-21T07:58:48.181Z,30.70
2018-10-21T08:01:22.145Z,31.47
2018-10-21T08:03:56.018Z,30.70
2018-10-21T08:06:41.199Z,31.80
2018-10-21T08:09:14.740Z,30.47
2018-10-21T08:11:48.622Z,30.13
2018-10-21T08:14:22.343Z,29.63
2018-10-21T08:16:57.050Z,31.60
2018-10-21T08:19:31.034Z,31.73
2018-10-21T08:22:05.072Z,31.60
2018-10-21T08:24:38.805Z,28.93
2018-10-21T08:27:18.992Z,30.30
2018-10-21T08:29:52.644Z,30.30
2018-10-21T08:32:26.650Z,30.50
2018-10-21T08:34:54.419Z,30.00
2018-10-21T08:37:28.344Z,30.43
2018-10-21T08:40:08.559Z,31.30
2018-10-21T08:42:42.334Z,31.67
2018-10-21T08:45:16.232Z,31.43
2018-10-21T08:47:50.171Z,30.37
2018-10-21T08:50:24.684Z,30.93
2018-10-21T08:52:59.259Z,30.13
2018-10-21T08:55:32.910Z,29.90
2018-10-21T08:58:06.707Z,29.57
2018-10-21T09:00:40.368Z,29.40
2018-10-21T09:03:15.049Z,28.87
2018-10-21T09:05:49.574Z,29.33
2018-10-21T09:08:23.109Z,29.30
2018-10-21T09:11:03.194Z,29.60
2018-10-21T09:13:36.913Z,28.60
2018-10-21T09:16:10.609Z,29.33
2018-10-21T09:18:44.164Z,28.93
2018-10-21T09:21:19.831Z,28.83
2018-10-21T09:23:53.688Z,28.33
2018-10-21T09:26:28.161Z,28.00
2018-10-21T09:29:02.102Z,27.93
2018-10-21T09:31:35.763Z,28.60
2018-10-21T09:34:10.483Z,29.50
2018-10-21T09:36:44.098Z,28.80
2018-10-21T09:39:18.834Z,26.97
2018-10-21T09:41:52.436Z,26.40
2018-10-21T09:44:26.179Z,27.10
2018-10-21T09:47:07.696Z,27.20
2018-10-21T09:49:41.868Z,27.10
2018-10-21T09:52:15.479Z,25.57
2018-10-21T09:54:55.458Z,25.60
2018-10-21T09:57:35.551Z,27.63
2018-10-21T10:00:21.578Z,27.83
2018-10-21T10:03:01.046Z,24.77
2018-10-21T10:05:34.673Z,25.27
2018-10-21T10:08:08.270Z,24.47
2018-10-21T10:10:42.028Z,25.63
2018-10-21T10:13:16.790Z,25.23
2018-10-21T10:15:50.596Z,23.97
2018-10-21T10:18:24.584Z,24.20
2018-10-21T10:21:05.147Z,23.33
2018-10-21T10:23:32.917Z,24.07
2018-10-21T10:26:01.136Z,22.73
2018-10-21T10:28:35.716Z,21.43
2018-10-21T10:31:09.733Z,22.30
2018-10-21T10:33:43.650Z,22.63
2018-10-21T10:36:17.694Z,22.00
2018-10-21T10:38:52.498Z,22.13
2018-10-21T10:41:26.320Z,22.10
2018-10-21T10:44:00.118Z,21.30
2018-10-21T10:46:33.919Z,21.13
2018-10-21T10:49:07.704Z,20.00
2018-10-21T10:51:42.561Z,20.57
2018-10-21T10:54:22.849Z,20.30
2018-10-21T10:57:10.021Z,20.13
2018-10-21T10:59:44.871Z,18.63
2018-10-21T11:02:18.601Z,17.47
2018-10-21T11:04:52.335Z,17.50
2018-10-21T11:07:26.145Z,17.80
2018-10-21T11:10:08.020Z,17.97
2018-10-21T11:12:41.613Z,19.63
2018-10-21T11:15:15.375Z,18.17
2018-10-21T11:17:49.094Z,16.07
2018-10-21T11:20:29.097Z,17.53
2018-10-21T11:23:09.277Z,15.70
2018-10-21T11:25:49.456Z,14.73
2018-10-21T11:28:29.441Z,14.37
2018-10-21T11:31:09.496Z,14.67
2018-10-21T11:33:49.663Z,14.13
2018-10-21T11:36:23.419Z,14.90
2018-10-21T11:38:57.246Z,15.43
2018-10-21T11:41:31.307Z,15.85
2018-10-21T11:44:11.496Z,16.32
2018-10-21T11:46:45.228Z,15.80
2018-10-21T11:49:25.400Z,15.85
2018-10-21T11:51:59.239Z,16.50
2018-10-21T11:54:32.920Z,16.23
2018-10-21T11:57:06.591Z,17.67
2018-10-21T11:59:40.432Z,15.65
2018-10-21T12:02:20.503Z,17.52
2018-10-21T12:05:00.641Z,17.87
2018-10-21T12:07:34.407Z,15.75
2018-10-21T12:10:08.493Z,16.73
2018-10-21T12:12:42.174Z,17.20
2018-10-21T12:15:17.820Z,16.32
2018-10-21T12:17:53.779Z,17.43
2018-10-21T12:20:33.817Z,15.75
2018-10-21T12:23:13.967Z,16.17
2018-10-21T12:25:50.069Z,15.40
2018-10-21T12:28:23.851Z,16.10
2018-10-21T12:30:58.699Z,16.70
2018-10-21T12:33:38.089Z,15.07
2018-10-21T12:36:12.733Z,14.63
2018-10-21T12:38:46.440Z,14.78
2018-10-21T12:41:20.377Z,14.58
2018-10-21T12:43:54.200Z,13.83
2018-10-21T12:46:27.757Z,15.80
2018-10-21T12:49:01.968Z,13.90
2018-10-21T12:51:35.757Z,15.60
2018-10-21T12:54:09.613Z,14.23
2018-10-21T12:56:43.588Z,14.63
2018-10-21T12:59:23.736Z,14.80
2018-10-21T13:01:57.620Z,14.25
2018-10-21T13:04:31.485Z,14.83
2018-10-21T13:07:05.544Z,14.43
2018-10-21T13:09:45.410Z,15.18
2018-10-21T13:12:20.141Z,14.50
2018-10-21T13:14:58.162Z,15.58
2018-10-21T13:17:32.791Z,15.03
2018-10-21T13:20:13.163Z,15.32
2018-10-21T13:22:47.011Z,15.43
2018-10-21T13:25:21.495Z,15.20
2018-10-21T13:28:01.897Z,13.85
2018-10-21T13:30:35.582Z,14.47
2018-10-21T13:33:15.762Z,14.68
2018-10-21T13:35:54.703Z,14.87
2018-10-21T13:38:28.502Z,15.03
2018-10-21T13:41:08.608Z,15.65
2018-10-21T13:43:42.359Z,14.45
2018-10-21T13:46:16.135Z,14.80
2018-10-21T13:48:56.203Z,15.77
2018-10-21T13:51:29.928Z,14.98
2018-10-21T13:54:10.113Z,13.98
2018-10-21T13:56:44.037Z,14.23
2018-10-21T13:59:24.123Z,12.58
2018-10-21T14:01:57.961Z,13.03
2018-10-21T14:04:32.615Z,13.55
2018-10-21T14:07:06.572Z,13.75
2018-10-21T14:09:46.639Z,13.43
2018-10-21T14:12:27.007Z,13.45
2018-10-21T14:15:00.818Z,14.68
2018-10-21T14:17:41.513Z,12.50
2018-10-21T14:20:15.324Z,13.22
2018-10-21T14:22:55.458Z,15.25
2018-10-21T14:25:29.119Z,14.05
2018-10-21T14:28:02.921Z,14.63
2018-10-21T14:30:36.895Z,14.68
2018-10-21T14:33:10.583Z,13.90
2018-10-21T14:35:44.484Z,14.90
2018-10-21T14:38:19.287Z,14.67
2018-10-21T14:40:59.370Z,13.90
2018-10-21T14:43:33.339Z,13.57
2018-10-21T14:46:13.586Z,14.30
2018-10-21T14:48:53.502Z,14.73
2018-10-21T14:51:28.110Z,13.27
2018-10-21T14:54:01.818Z,13.60
2018-10-21T14:56:35.720Z,12.70
2018-10-21T14:59:15.920Z,13.77
2018-10-21T15:01:49.745Z,13.13
2018-10-21T15:04:29.915Z,13.73
2018-10-21T15:07:04.955Z,13.80
2018-10-21T15:09:39.046Z,13.50
2018-10-21T15:12:12.689Z,13.73
2018-10-21T15:14:53.198Z,14.77
2018-10-21T15:17:27.784Z,13.70
2018-10-21T15:20:01.743Z,14.23
2018-10-21T15:22:35.499Z,13.80
2018-10-21T15:25:15.770Z,13.97
2018-10-21T15:27:49.661Z,12.73
2018-10-21T15:30:23.403Z,13.80
2018-10-21T15:32:59.091Z,13.70
2018-10-21T15:35:39.136Z,14.13
2018-10-21T15:38:13.375Z,12.87
2018-10-21T15:40:48.021Z,12.43
2018-10-21T15:43:21.840Z,11.87
2018-10-21T15:45:55.669Z,11.97
2018-10-21T15:48:29.355Z,12.40
2018-10-21T15:51:09.547Z,11.20
2018-10-21T15:53:49.669Z,12.47
2018-10-21T15:56:29.668Z,11.33
2018-10-21T15:59:04.499Z,12.70
2018-10-21T16:01:38.412Z,13.73
2018-10-21T16:04:12.060Z,11.57
2018-10-21T16:06:52.103Z,12.90
2018-10-21T16:09:26.819Z,10.60
2018-10-21T16:12:00.429Z,11.63
2018-10-21T16:14:40.530Z,10.37
2018-10-21T16:17:14.283Z,11.00
2018-10-21T16:19:49.145Z,10.20
2018-10-21T16:22:22.787Z,10.63
2018-10-21T16:25:03.038Z,10.87
2018-10-21T16:27:36.835Z,10.47
2018-10-21T16:30:13.237Z,11.30
2018-10-21T16:32:53.183Z,12.40
2018-10-21T16:35:26.988Z,12.27
2018-10-21T16:38:00.603Z,11.83
2018-10-21T16:40:40.760Z,12.50
2018-10-21T16:43:14.614Z,12.30
2018-10-21T16:45:48.201Z,11.63
2018-10-21T16:48:22.666Z,12.60
2018-10-21T16:50:56.496Z,12.20
2018-10-21T16:53:36.454Z,12.77
2018-10-21T16:56:10.242Z,11.93
2018-10-21T16:58:44.013Z,11.73
2018-10-21T17:01:24.469Z,11.67
2018-10-21T17:03:58.352Z,12.50
2018-10-21T17:06:32.127Z,12.37
2018-10-21T17:09:09.675Z,12.40
2018-10-21T17:11:43.973Z,12.63
2018-10-21T17:14:24.112Z,11.07
2018-10-21T17:16:57.735Z,11.67
2018-10-21T17:19:31.498Z,11.77
2018-10-21T17:22:05.042Z,12.93
2018-10-21T17:24:38.646Z,12.67
2018-10-21T17:27:12.260Z,11.80
2018-10-21T17:29:52.449Z,11.77
2018-10-21T17:32:26.258Z,12.57
2018-10-21T17:35:01.175Z,12.03
2018-10-21T17:37:41.338Z,12.40
2018-10-21T17:40:15.126Z,12.57
2018-10-21T17:42:48.882Z,13.77
2018-10-21T17:45:22.616Z,11.90
2018-10-21T17:47:56.520Z,12.67
2018-10-21T17:50:30.388Z,11.73
2018-10-21T17:53:05.018Z,12.23
2018-10-21T17:55:38.968Z,12.50
2018-10-21T17:58:18.944Z,12.63
2018-10-21T18:00:59.018Z,12.70
2018-10-21T18:03:32.798Z,13.53
2018-10-21T18:06:06.686Z,13.83
2018-10-21T18:08:41.349Z,13.73
2018-10-21T18:11:21.422Z,14.77
2018-10-21T18:13:55.309Z,14.93
2018-10-21T18:16:28.946Z,14.70
2018-10-21T18:19:04.396Z,15.53
2018-10-21T18:21:44.526Z,15.70
2018-10-21T18:24:19.220Z,15.33
2018-10-21T18:26:52.945Z,16.93
2018-10-21T18:29:26.506Z,18.83
2018-10-21T18:31:59.950Z,18.63
2018-10-21T18:34:40.209Z,18.73
2018-10-21T18:37:13.996Z,17.57
2018-10-21T18:39:47.606Z,19.27
2018-10-21T18:42:27.831Z,18.60
2018-10-21T18:45:02.388Z,18.67
2018-10-21T18:47:37.212Z,18.47
2018-10-21T18:50:12.151Z,18.67
2018-10-21T18:52:45.737Z,18.97
2018-10-21T18:55:20.644Z,19.53
2018-10-21T18:57:54.370Z,19.40
2018-10-21T19:00:28.156Z,21.30
2018-10-21T19:03:08.337Z,19.87
2018-10-21T19:05:41.938Z,19.13
2018-10-21T19:08:15.566Z,18.87
2018-10-21T19:10:49.189Z,18.97
2018-10-21T19:13:22.932Z,18.63
2018-10-21T19:16:03.076Z,18.00
2018-10-21T19:18:36.685Z,17.60
2018-10-21T19:21:11.305Z,16.50
2018-10-21T19:23:45.235Z,17.23
2018-10-21T19:26:25.353Z,16.90
2018-10-21T19:29:05.410Z,16.47
2018-10-21T19:31:40.082Z,16.20
2018-10-21T19:34:13.806Z,15.73
2018-10-21T19:36:53.845Z,14.77
2018-10-21T19:39:28.570Z,14.63
2018-10-21T19:42:02.402Z,15.43
2018-10-21T19:44:36.119Z,16.33
2018-10-21T19:47:16.108Z,17.40
2018-10-21T19:49:49.594Z,17.03
2018-10-21T19:52:23.112Z,16.90
2018-10-21T19:54:57.000Z,16.33
2018-10-21T19:57:36.894Z,15.50
2018-10-21T20:00:17.177Z,15.70
2018-10-21T20:02:57.244Z,15.83
2018-10-21T20:05:37.190Z,15.57
2018-10-21T20:08:10.970Z,15.83
2018-10-21T20:10:44.529Z,15.70
2018-10-21T20:13:18.384Z,16.13
2018-10-21T20:15:58.496Z,15.53
2018-10-21T20:18:31.992Z,15.93
2018-10-21T20:21:05.705Z,19.70
2018-10-21T20:23:39.282Z,17.10
2018-10-21T20:26:13.171Z,18.03
2018-10-21T20:28:47.094Z,17.53
2018-10-21T20:31:20.804Z,17.67
2018-10-21T20:33:54.356Z,19.23
2018-10-21T20:36:28.034Z,18.67
2018-10-21T20:39:01.782Z,17.37
2018-10-21T20:41:35.474Z,18.87
2018-10-21T20:44:15.586Z,17.50
2018-10-21T20:46:49.224Z,18.57
2018-10-21T20:49:23.058Z,17.67
2018-10-21T20:52:03.183Z,16.80
2018-10-21T20:54:43.372Z,17.03
2018-10-21T20:57:23.443Z,17.73
2018-10-21T20:59:57.278Z,17.83
2018-10-21T21:02:32.009Z,17.80
2018-10-21T21:05:11.911Z,18.17
2018-10-21T21:07:45.542Z,18.23
2018-10-21T21:10:19.263Z,16.60
2018-10-21T21:12:52.968Z,19.03
2018-10-21T21:15:32.912Z,17.37
2018-10-21T21:18:06.632Z,19.80
2018-10-21T21:20:41.307Z,18.43
2018-10-21T21:23:14.939Z,18.93
2018-10-21T21:25:48.867Z,17.57
2018-10-21T21:28:24.543Z,18.90
2018-10-21T21:30:58.320Z,18.53
2018-10-21T21:33:32.112Z,18.30
2018-10-21T21:36:06.003Z,18.60
2018-10-21T21:38:40.498Z,17.70
2018-10-21T21:41:14.193Z,18.67
2018-10-21T21:43:47.860Z,18.87
2018-10-21T21:46:21.516Z,19.03
2018-10-21T21:49:01.639Z,19.33
2018-10-21T21:51:35.412Z,18.60
2018-10-21T21:54:10.770Z,18.47
2018-10-21T21:56:45.094Z,19.90
2018-10-21T21:59:18.813Z,19.60
2018-10-21T22:01:52.318Z,18.87
2018-10-21T22:04:32.393Z,20.33
2018-10-21T22:07:07.066Z,20.13
2018-10-21T22:09:40.826Z,19.03
2018-10-21T22:12:14.439Z,18.33
2018-10-21T22:14:48.100Z,21.00
2018-10-21T22:17:21.663Z,18.67
2018-10-21T22:19:55.367Z,21.37
2018-10-21T22:22:29.054Z,20.20
2018-10-21T22:25:02.776Z,21.70
2018-10-21T22:27:42.700Z,21.07
2018-10-21T22:30:22.708Z,21.17
2018-10-21T22:32:56.324Z,21.67
2018-10-21T22:35:30.036Z,21.90
2018-10-21T22:38:04.249Z,21.17
2018-10-21T22:40:37.836Z,20.70
2018-10-21T22:43:11.490Z,23.57
2018-10-21T22:45:45.096Z,23.43
2018-10-21T22:48:18.714Z,22.30
2018-10-21T22:50:52.281Z,21.47
2018-10-21T22:53:26.871Z,22.33
2018-10-21T22:56:00.538Z,21.23
2018-10-21T22:58:34.176Z,21.83
2018-10-21T23:01:08.975Z,22.60
2018-10-21T23:03:42.632Z,22.97
2018-10-21T23:06:16.369Z,22.23
2018-10-21T23:08:57.022Z,22.17
2018-10-21T23:11:30.599Z,24.10
2018-10-21T23:14:10.984Z,23.67
2018-10-21T23:16:44.550Z,21.97
2018-10-21T23:19:37.050Z,23.00
2018-10-21T23:22:10.672Z,22.20
2018-10-21T23:24:44.131Z,22.53
2018-10-21T23:27:18.835Z,23.27
2018-10-21T23:29:52.457Z,23.17
2018-10-21T23:32:26.002Z,23.23
2018-10-21T23:35:06.311Z,23.40
2018-10-21T23:37:39.853Z,22.33
2018-10-21T23:40:13.536Z,23.87
2018-10-21T23:42:47.214Z,24.53
2018-10-21T23:45:20.786Z,23.23
2018-10-21T23:47:54.412Z,23.33
2018-10-21T23:50:28.015Z,24.10
2018-10-21T23:53:02.776Z,23.73
2018-10-21T23:55:36.335Z,23.90
2018-10-21T23:58:10.019Z,21.80
